Time;durP1;ratioP1;P1;durP2;ratioP2;P2;SDS_P1;SDS_P2;PMS_P1;PMS_P2;Temp;Humidity;BMP_temperature;BMP_pressure;BME280_temperature;BME280_humidity;BME280_pressure;Samples;Min_cycle;Max_cycle;Signal;HPM_P1;HPM_P2
2022/08/09 00:01:15;;;;;;;0.30;0.30;;;16.10;99.90;;;;;;5028101;28;20244;-78
2022/08/09 00:03:41;;;;;;;0.40;0.40;;;16.00;99.90;;;;;;5035990;28;20208;-78
2022/08/09 00:06:06;;;;;;;0.33;0.33;;;16.00;99.90;;;;;;5034586;28;20203;-78
2022/08/09 00:08:32;;;;;;;0.30;0.30;;;16.00;99.90;;;;;;5032027;28;20243;-78
2022/08/09 00:10:59;;;;;;;0.30;0.30;;;15.90;99.90;;;;;;5030625;28;20172;-77
2022/08/09 00:13:25;;;;;;;0.30;0.30;;;15.80;99.90;;;;;;5024560;28;20200;-79
2022/08/09 00:15:51;;;;;;;0.30;0.30;;;15.80;1.00;;;;;;5021212;28;20561;-78
2022/08/09 00:18:17;;;;;;;0.40;0.40;;;16.00;99.90;;;;;;5021699;28;20173;-79
2022/08/09 00:20:42;;;;;;;0.40;0.40;;;15.70;99.90;;;;;;5017151;28;20288;-78
2022/08/09 00:23:08;;;;;;;0.50;0.50;;;15.60;99.90;;;;;;5020533;28;20192;-78
2022/08/09 00:25:33;;;;;;;0.30;0.30;;;15.50;1.00;;;;;;5021830;28;20232;-78
2022/08/09 00:27:59;;;;;;;0.37;0.37;;;15.40;1.00;;;;;;5021128;28;20380;-78
2022/08/09 00:30:24;;;;;;;0.30;0.30;;;15.40;1.00;;;;;;5021110;28;20830;-79
2022/08/09 00:32:50;;;;;;;0.30;0.30;;;15.30;1.00;;;;;;5021843;28;20201;-78
2022/08/09 00:35:15;;;;;;;0.40;0.40;;;15.30;1.00;;;;;;5022230;28;20223;-78
2022/08/09 00:37:41;;;;;;;0.33;0.33;;;15.30;1.00;;;;;;5021323;28;20187;-78
2022/08/09 00:40:07;;;;;;;0.40;0.40;;;15.30;1.00;;;;;;5021906;28;20626;-79
2022/08/09 00:42:33;;;;;;;0.40;0.40;;;15.10;1.00;;;;;;5021666;28;20200;-78
2022/08/09 00:44:58;;;;;;;0.30;0.30;;;15.20;1.00;;;;;;5020087;28;20261;-79
2022/08/09 00:47:24;;;;;;;0.30;0.30;;;14.90;99.90;;;;;;5021379;28;20174;-78
2022/08/09 00:49:49;;;;;;;0.30;0.30;;;15.00;99.90;;;;;;5020297;28;20688;-79
2022/08/09 00:52:15;;;;;;;0.40;0.40;;;15.20;43.40;;;;;;5022246;28;20240;-79
2022/08/09 00:54:40;;;;;;;0.50;0.50;;;15.10;1.00;;;;;;5020330;28;20181;-79
2022/08/09 00:57:06;;;;;;;0.40;0.40;;;15.00;1.00;;;;;;5021603;28;20184;-79
2022/08/09 00:59:31;;;;;;;0.30;0.30;;;14.80;99.90;;;;;;5024637;28;20176;-80
2022/08/09 01:02:00;;;;;;;0.40;0.40;;;14.80;42.30;;;;;;5017993;28;20562;-78
2022/08/09 01:04:40;;;;;;;0.40;0.40;;;14.80;99.90;;;;;;5013962;28;20177;-78
2022/08/09 01:07:22;;;;;;;0.40;0.40;;;14.90;99.90;;;;;;5014178;28;20178;-78
2022/08/09 01:10:06;;;;;;;0.40;0.40;;;14.90;1.00;;;;;;5013453;28;20196;-78
2022/08/09 01:12:38;;;;;;;0.30;0.30;;;14.80;99.90;;;;;;5013632;28;20196;-78
2022/08/09 01:15:05;;;;;;;0.30;0.30;;;14.70;1.00;;;;;;5013030;28;20176;-78
2022/08/09 01:17:48;;;;;;;0.40;0.40;;;14.80;1.00;;;;;;5013136;28;20658;-78
2022/08/09 01:20:40;;;;;;;0.30;0.30;;;14.80;99.90;;;;;;5013104;28;20669;-78
2022/08/09 01:23:14;;;;;;;0.40;0.40;;;14.80;99.90;;;;;;5012946;28;20195;-77
2022/08/09 01:25:48;;;;;;;0.40;0.40;;;14.80;99.90;;;;;;5012848;28;20625;-78
2022/08/09 01:28:14;;;;;;;0.40;0.40;;;14.80;99.90;;;;;;5012852;28;20274;-77
2022/08/09 01:30:41;;;;;;;0.40;0.40;;;14.80;1.00;;;;;;5012961;28;20180;-76
2022/08/09 01:33:08;;;;;;;0.40;0.40;;;14.80;12.60;;;;;;5013481;28;20204;-77
2022/08/09 01:35:41;;;;;;;0.43;0.43;;;14.70;99.90;;;;;;5014943;28;20254;-77
2022/08/09 01:38:12;;;;;;;0.30;0.30;;;14.70;1.00;;;;;;5015724;28;20259;-78
2022/08/09 01:40:45;;;;;;;0.40;0.40;;;14.70;1.00;;;;;;5017716;28;20203;-78
2022/08/09 01:43:12;;;;;;;0.40;0.40;;;14.60;13.60;;;;;;5018899;28;20629;-78
2022/08/09 01:45:39;;;;;;;0.40;0.40;;;14.60;1.00;;;;;;5017133;28;20185;-78
2022/08/09 01:48:05;;;;;;;0.40;0.40;;;14.60;1.00;;;;;;5014940;28;20204;-78
2022/08/09 01:50:31;;;;;;;0.40;0.40;;;14.60;1.00;;;;;;5012033;28;20179;-77
2022/08/09 01:52:59;;;;;;;0.50;0.50;;;14.60;99.90;;;;;;5013332;28;20200;-78
2022/08/09 01:55:25;;;;;;;0.40;0.40;;;14.40;1.00;;;;;;5013020;28;20234;-77
2022/08/09 01:57:54;;;;;;;0.40;0.40;;;14.50;1.00;;;;;;5012502;28;20184;-78
2022/08/09 02:00:20;;;;;;;0.60;0.60;;;14.30;1.00;;;;;;5011762;28;20721;-77
2022/08/09 02:02:49;;;;;;;0.40;0.40;;;14.10;99.90;;;;;;5011939;28;20197;-77
2022/08/09 02:05:18;;;;;;;0.40;0.40;;;14.20;99.90;;;;;;5011821;28;20238;-77
2022/08/09 02:07:46;;;;;;;0.40;0.40;;;14.20;99.90;;;;;;5011687;28;20204;-77
2022/08/09 02:10:19;;;;;;;0.37;0.37;;;14.20;1.00;;;;;;5011010;28;20192;-77
2022/08/09 02:12:46;;;;;;;0.40;0.40;;;14.20;1.00;;;;;;5011589;28;20204;-77
2022/08/09 02:15:13;;;;;;;0.40;0.40;;;14.30;1.00;;;;;;5015963;28;20188;-76
2022/08/09 02:17:40;;;;;;;0.47;0.47;;;14.00;99.90;;;;;;5023253;28;20176;-78
2022/08/09 02:20:06;;;;;;;0.40;0.40;;;14.10;99.90;;;;;;5028951;28;20192;-78
2022/08/09 02:22:44;;;;;;;0.37;0.37;;;14.20;1.00;;;;;;5029605;28;20203;-77
2022/08/09 02:25:15;;;;;;;0.40;0.40;;;14.00;1.00;;;;;;5025735;28;20200;-77
2022/08/09 02:27:49;;;;;;;0.30;0.30;;;14.10;1.00;;;;;;5027899;28;20172;-77
2022/08/09 02:30:15;;;;;;;0.30;0.30;;;14.10;1.00;;;;;;5019149;28;20181;-78
2022/08/09 02:32:44;;;;;;;0.40;0.40;;;14.10;1.00;;;;;;5014919;28;20697;-78
2022/08/09 02:35:19;;;;;;;0.40;0.40;;;13.90;1.00;;;;;;5013275;28;20235;-78
2022/08/09 02:37:46;;;;;;;0.40;0.40;;;13.70;99.90;;;;;;5013640;28;20230;-78
2022/08/09 02:40:15;;;;;;;0.50;0.50;;;13.70;99.90;;;;;;5015105;28;20244;-78
2022/08/09 02:42:43;;;;;;;0.40;0.40;;;13.80;99.90;;;;;;5015052;28;20280;-78
2022/08/09 02:45:22;;;;;;;0.40;0.40;;;13.80;99.90;;;;;;5017725;28;20196;-78
2022/08/09 02:47:49;;;;;;;0.40;0.40;;;13.90;99.50;;;;;;5017742;28;20267;-77
2022/08/09 02:50:21;;;;;;;0.40;0.40;;;13.90;1.00;;;;;;5017934;28;20203;-78
2022/08/09 02:52:50;;;;;;;0.40;0.40;;;13.90;1.00;;;;;;5016916;28;20197;-78
2022/08/09 02:55:16;;;;;;;0.40;0.40;;;13.90;99.90;;;;;;5016556;28;20280;-77
2022/08/09 02:57:44;;;;;;;0.40;0.40;;;13.80;99.90;;;;;;5017206;28;20177;-77
2022/08/09 03:00:10;;;;;;;0.50;0.50;;;13.80;99.90;;;;;;5016452;28;20183;-78
2022/08/09 03:02:54;;;;;;;0.40;0.40;;;13.80;99.90;;;;;;5016325;28;20207;-77
2022/08/09 03:05:21;;;;;;;0.50;0.50;;;13.70;99.90;;;;;;5016190;28;20535;-78
2022/08/09 03:07:49;;;;;;;0.30;0.30;;;13.70;99.90;;;;;;5015762;28;20565;-77
2022/08/09 03:10:15;;;;;;;0.50;0.50;;;13.60;99.90;;;;;;5016272;28;20275;-77
2022/08/09 03:12:42;;;;;;;0.40;0.40;;;13.50;99.90;;;;;;5017548;28;20259;-78
2022/08/09 03:15:10;;;;;;;0.43;0.43;;;13.50;99.90;;;;;;5020153;28;20646;-78
2022/08/09 03:17:36;;;;;;;0.40;0.40;;;13.50;99.90;;;;;;5018402;28;20183;-78
2022/08/09 03:20:04;;;;;;;0.40;0.40;;;13.50;99.90;;;;;;5017992;28;20191;-78
2022/08/09 03:22:32;;;;;;;0.50;0.50;;;13.30;1.00;;;;;;5018416;28;20976;-77
2022/08/09 03:24:58;;;;;;;0.40;0.40;;;13.20;1.00;;;;;;5016599;28;20176;-77
2022/08/09 03:27:25;;;;;;;0.50;0.50;;;13.40;1.00;;;;;;5017215;28;20230;-78
2022/08/09 03:29:52;;;;;;;0.50;0.50;;;13.40;1.00;;;;;;5015578;28;20398;-77
2022/08/09 03:32:18;;;;;;;0.53;0.53;;;13.40;1.00;;;;;;5015794;28;20243;-78
2022/08/09 03:34:44;;;;;;;0.40;0.40;;;13.50;1.00;;;;;;5015470;28;20177;-77
2022/08/09 03:37:10;;;;;;;0.43;0.43;;;13.40;1.00;;;;;;5015061;28;20668;-78
2022/08/09 03:39:35;;;;;;;0.50;0.50;;;13.40;1.00;;;;;;5015240;28;20628;-78
2022/08/09 03:42:01;;;;;;;0.50;0.50;;;13.40;1.00;;;;;;5015463;28;20180;-77
2022/08/09 03:44:28;;;;;;;0.50;0.50;;;13.30;1.00;;;;;;5015484;28;20177;-77
2022/08/09 03:46:55;;;;;;;0.40;0.40;;;13.30;1.00;;;;;;5016044;28;20180;-78
2022/08/09 03:49:23;;;;;;;0.40;0.40;;;13.30;1.00;;;;;;5016779;28;20232;-78
2022/08/09 03:51:52;;;;;;;0.40;0.40;;;13.30;1.00;;;;;;5016059;28;20195;-77
2022/08/09 03:54:18;;;;;;;0.43;0.43;;;13.40;1.00;;;;;;5016212;28;20208;-78
2022/08/09 03:56:44;;;;;;;0.40;0.40;;;13.40;1.00;;;;;;5016395;28;20545;-77
2022/08/09 03:59:11;;;;;;;0.50;0.50;;;13.20;1.00;;;;;;5015671;28;20746;-77
2022/08/09 04:01:38;;;;;;;0.50;0.50;;;13.20;1.00;;;;;;5016461;28;20169;-78
2022/08/09 04:04:04;;;;;;;0.50;0.50;;;13.10;1.00;;;;;;5015816;28;20204;-78
2022/08/09 04:06:30;;;;;;;0.40;0.40;;;13.20;1.00;;;;;;5016057;28;20184;-78
2022/08/09 04:08:56;;;;;;;0.50;0.50;;;13.20;1.00;;;;;;5015926;28;20585;-79
2022/08/09 04:11:21;;;;;;;0.50;0.50;;;13.20;1.00;;;;;;5016103;28;20180;-77
2022/08/09 04:13:47;;;;;;;0.40;0.40;;;13.20;1.00;;;;;;5015014;28;20192;-77
2022/08/09 04:16:12;;;;;;;0.43;0.43;;;13.10;1.00;;;;;;5016205;28;20172;-78
2022/08/09 04:18:39;;;;;;;0.50;0.50;;;13.00;1.00;;;;;;5015218;28;20165;-77
2022/08/09 04:21:05;;;;;;;0.40;0.40;;;13.00;1.00;;;;;;5019476;28;20204;-79
2022/08/09 04:23:31;;;;;;;0.50;0.50;;;13.60;1.00;;;;;;5037127;28;20234;-81
2022/08/09 04:25:56;;;;;;;0.50;0.50;;;13.00;1.00;;;;;;5039798;28;20188;-82
2022/08/09 04:28:24;;;;;;;0.43;0.43;;;12.90;1.00;;;;;;5036792;28;20199;-84
2022/08/09 04:30:49;;;;;;;0.30;0.30;;;12.90;1.00;;;;;;5037170;28;20191;-81
2022/08/09 04:33:15;;;;;;;0.60;0.60;;;12.90;1.00;;;;;;5038426;28;20195;-82
2022/08/09 04:35:41;;;;;;;0.50;0.50;;;13.00;1.00;;;;;;5038122;28;20199;-82
2022/08/09 04:38:06;;;;;;;0.30;0.30;;;12.90;1.00;;;;;;5038538;28;20180;-78
2022/08/09 04:40:53;;;;;;;0.40;0.40;;;13.20;1.00;;;;;;5040420;28;20207;-78
2022/08/09 04:43:18;;;;;;;0.40;0.40;;;13.30;1.00;;;;;;5039974;28;20200;-78
2022/08/09 04:45:45;;;;;;;0.47;0.47;;;13.10;1.00;;;;;;5039990;28;20187;-78
2022/08/09 04:48:11;;;;;;;0.50;0.50;;;13.30;1.00;;;;;;5038961;28;20250;-77
2022/08/09 04:50:37;;;;;;;0.50;0.50;;;13.20;1.00;;;;;;5038338;28;20207;-77
2022/08/09 04:53:06;;;;;;;0.50;0.50;;;13.00;1.00;;;;;;5033305;28;20199;-78
2022/08/09 04:55:32;;;;;;;0.50;0.50;;;13.00;1.00;;;;;;5032358;28;20172;-77
2022/08/09 04:57:57;;;;;;;0.50;0.50;;;13.30;1.00;;;;;;5032654;28;20263;-77
2022/08/09 05:00:23;;;;;;;0.40;0.40;;;13.40;1.00;;;;;;5031958;28;20183;-77
2022/08/09 05:02:49;;;;;;;0.40;0.40;;;13.60;1.00;;;;;;5032543;28;20204;-77
2022/08/09 05:05:14;;;;;;;0.40;0.40;;;13.40;1.00;;;;;;5032186;28;20233;-77
2022/08/09 05:07:40;;;;;;;0.50;0.50;;;13.50;1.00;;;;;;5031541;28;20180;-78
2022/08/09 05:10:06;;;;;;;0.40;0.40;;;13.70;1.00;;;;;;5032352;28;20329;-79
2022/08/09 05:12:31;;;;;;;0.50;0.50;;;14.00;1.00;;;;;;5072886;22;20254;-80
2022/08/09 05:14:57;;;;;;;0.50;0.50;;;14.30;1.00;;;;;;5036937;28;20711;-79
2022/08/09 05:17:22;;;;;;;0.50;0.50;;;13.90;1.00;;;;;;5039086;28;20176;-78
2022/08/09 05:19:48;;;;;;;0.50;0.50;;;14.20;1.00;;;;;;5038290;28;20180;-80
2022/08/09 05:22:13;;;;;;;0.40;0.40;;;14.20;1.00;;;;;;5038339;28;20584;-80
2022/08/09 05:24:39;;;;;;;0.30;0.30;;;14.40;1.00;;;;;;5039283;28;20183;-80
2022/08/09 05:27:05;;;;;;;0.40;0.40;;;14.80;99.90;;;;;;5038003;28;20228;-77
2022/08/09 05:29:30;;;;;;;0.50;0.50;;;14.60;99.90;;;;;;5036706;28;20215;-78
2022/08/09 05:31:59;;;;;;;0.40;0.40;;;15.00;99.90;;;;;;5037941;28;20613;-78
2022/08/09 05:34:26;;;;;;;0.30;0.30;;;15.10;99.90;;;;;;5038685;28;20195;-78
2022/08/09 05:36:52;;;;;;;0.40;0.40;;;15.30;1.00;;;;;;5038738;28;20245;-78
2022/08/09 05:39:17;;;;;;;0.40;0.40;;;15.80;1.00;;;;;;5036979;28;20167;-78
2022/08/09 05:41:43;;;;;;;0.47;0.47;;;15.90;1.00;;;;;;5034247;28;20235;-78
2022/08/09 05:44:09;;;;;;;0.40;0.40;;;16.20;99.90;;;;;;5034837;28;20283;-78
2022/08/09 05:46:35;;;;;;;0.40;0.40;;;16.50;1.00;;;;;;5035147;28;20544;-78
2022/08/09 05:49:01;;;;;;;0.40;0.40;;;16.10;1.00;;;;;;5034370;28;20207;-79
2022/08/09 05:51:26;;;;;;;0.40;0.40;;;16.00;1.00;;;;;;5035864;28;20174;-78
2022/08/09 05:53:52;;;;;;;0.30;0.30;;;16.00;1.00;;;;;;5035419;28;20195;-79
2022/08/09 05:56:19;;;;;;;0.40;0.40;;;15.90;78.30;;;;;;5038376;28;20176;-78
2022/08/09 05:58:45;;;;;;;0.40;0.40;;;15.80;1.00;;;;;;5037601;28;20184;-79
2022/08/09 06:01:10;;;;;;;0.40;0.40;;;15.60;99.90;;;;;;5036940;28;20179;-79
2022/08/09 06:03:36;;;;;;;0.30;0.30;;;15.70;99.90;;;;;;5038553;28;20199;-79
2022/08/09 06:06:02;;;;;;;0.40;0.40;;;16.00;99.90;;;;;;5036671;28;20176;-78
2022/08/09 06:08:27;;;;;;;0.40;0.40;;;16.10;1.00;;;;;;5037307;28;20286;-79
2022/08/09 06:10:55;;;;;;;0.37;0.37;;;16.30;1.00;;;;;;5036177;28;20669;-79
2022/08/09 06:13:21;;;;;;;0.40;0.40;;;16.10;99.90;;;;;;5037153;28;20227;-78
2022/08/09 06:15:48;;;;;;;0.40;0.40;;;16.10;1.00;;;;;;5037826;28;20203;-78
2022/08/09 06:18:13;;;;;;;0.30;0.30;;;16.30;99.90;;;;;;5039296;28;20221;-79
2022/08/09 06:20:40;;;;;;;0.30;0.30;;;16.40;99.90;;;;;;5041636;28;20231;-79
2022/08/09 06:23:06;;;;;;;0.30;0.30;;;16.60;99.90;;;;;;5042383;28;20227;-79
2022/08/09 06:25:31;;;;;;;0.30;0.30;;;16.70;1.00;;;;;;5045269;28;20180;-79
2022/08/09 06:27:57;;;;;;;0.30;0.30;;;16.90;1.00;;;;;;5052860;28;20223;-79
2022/08/09 06:30:22;;;;;;;0.40;0.40;;;17.30;1.00;;;;;;5050824;28;20179;-80
2022/08/09 06:32:50;;;;;;;0.30;0.30;;;17.50;99.90;;;;;;5040457;28;20195;-79
2022/08/09 06:35:16;;;;;;;0.40;0.40;;;17.50;72.30;;;;;;5037697;28;20187;-77
2022/08/09 06:37:41;;;;;;;0.40;0.40;;;17.50;99.90;;;;;;5036356;28;20195;-77
2022/08/09 06:40:07;;;;;;;0.30;0.30;;;17.70;99.90;;;;;;5035252;28;20172;-79
2022/08/09 06:42:33;;;;;;;0.30;0.30;;;17.70;99.90;;;;;;5034907;28;20279;-78
2022/08/09 06:44:58;;;;;;;0.40;0.40;;;17.70;99.90;;;;;;5035670;28;20234;-78
2022/08/09 06:47:24;;;;;;;0.37;0.37;;;17.80;33.40;;;;;;5035317;28;20176;-78
2022/08/09 06:49:51;;;;;;;0.50;0.50;;;17.90;1.00;;;;;;5034792;28;20225;-79
2022/08/09 06:52:16;;;;;;;0.40;0.40;;;18.20;1.00;;;;;;5035152;28;20199;-78
2022/08/09 06:54:42;;;;;;;0.40;0.40;;;18.50;99.90;;;;;;5034777;28;20555;-78
2022/08/09 06:57:08;;;;;;;0.43;0.43;;;18.70;99.90;;;;;;5034911;28;20179;-79
2022/08/09 06:59:33;;;;;;;0.30;0.30;;;18.80;99.90;;;;;;5034813;28;20172;-78
2022/08/09 07:01:59;;;;;;;0.40;0.40;;;19.10;99.90;;;;;;5035100;28;20176;-79
2022/08/09 07:04:24;;;;;;;0.40;0.40;;;19.30;1.00;;;;;;5036195;28;20180;-78
2022/08/09 07:06:50;;;;;;;0.43;0.43;;;19.40;1.00;;;;;;5036182;28;20184;-78
2022/08/09 07:09:15;;;;;;;0.40;0.40;;;19.90;1.00;;;;;;5036407;28;20222;-78
2022/08/09 07:11:41;;;;;;;0.30;0.30;;;20.40;1.00;;;;;;5036517;28;20544;-78
2022/08/09 07:14:06;;;;;;;0.40;0.40;;;20.40;1.00;;;;;;5036342;28;20531;-78
2022/08/09 07:16:32;;;;;;;0.33;0.33;;;20.60;1.00;;;;;;5038541;28;20218;-79
2022/08/09 07:18:58;;;;;;;0.40;0.40;;;20.80;1.00;;;;;;5036842;28;20218;-80
2022/08/09 07:21:23;;;;;;;0.30;0.30;;;20.90;1.00;;;;;;5037305;28;20633;-79
2022/08/09 07:23:49;;;;;;;0.30;0.30;;;21.30;1.00;;;;;;5036844;28;20258;-78
2022/08/09 07:26:15;;;;;;;0.30;0.30;;;21.60;1.00;;;;;;5036303;28;20209;-80
2022/08/09 07:28:40;;;;;;;0.40;0.40;;;21.90;1.00;;;;;;5036383;28;20223;-79
2022/08/09 07:31:06;;;;;;;0.40;0.40;;;21.80;1.00;;;;;;5036292;28;20176;-79
2022/08/09 07:33:32;;;;;;;0.30;0.30;;;21.90;1.00;;;;;;5035509;28;20196;-80
2022/08/09 07:35:58;;;;;;;0.33;0.33;;;22.20;1.00;;;;;;5035987;28;20172;-79
2022/08/09 07:38:23;;;;;;;0.30;0.30;;;22.50;1.00;;;;;;5035643;28;20187;-78
2022/08/09 07:40:50;;;;;;;0.30;0.30;;;22.70;1.00;;;;;;5034919;28;20233;-79
2022/08/09 07:43:15;;;;;;;0.30;0.30;;;23.00;1.00;;;;;;5035333;28;20200;-78
2022/08/09 07:45:41;;;;;;;0.30;0.30;;;23.50;1.00;;;;;;5035722;28;20168;-79
2022/08/09 07:48:11;;;;;;;0.40;0.40;;;24.20;1.00;;;;;;5034837;28;20214;-78
2022/08/09 07:50:39;;;;;;;0.27;0.27;;;24.70;1.00;;;;;;5034167;28;20250;-77
2022/08/09 07:53:06;;;;;;;0.50;0.50;;;24.90;1.00;;;;;;5034827;28;20199;-78
2022/08/09 07:55:32;;;;;;;0.50;0.50;;;25.10;1.00;;;;;;5034828;28;20179;-78
2022/08/09 07:57:58;;;;;;;0.40;0.40;;;25.00;1.00;;;;;;5034976;28;20637;-78
2022/08/09 08:00:24;;;;;;;0.40;0.40;;;25.40;1.00;;;;;;5035227;28;20172;-79
2022/08/09 08:02:50;;;;;;;0.33;0.33;;;25.90;1.00;;;;;;5035175;28;20271;-77
2022/08/09 08:05:15;;;;;;;0.30;0.30;;;25.90;1.00;;;;;;5034226;28;20211;-78
2022/08/09 08:07:41;;;;;;;0.40;0.40;;;26.10;1.00;;;;;;5034426;28;20179;-78
2022/08/09 08:10:08;;;;;;;0.50;0.50;;;26.30;1.00;;;;;;5034289;28;20191;-79
2022/08/09 08:12:33;;;;;;;0.40;0.40;;;26.40;1.00;;;;;;5035112;28;20755;-77
2022/08/09 08:14:59;;;;;;;0.50;0.50;;;26.40;1.00;;;;;;5034562;28;20210;-80
2022/08/09 08:17:24;;;;;;;0.40;0.40;;;26.40;1.00;;;;;;5034776;28;20255;-80
2022/08/09 08:19:50;;;;;;;0.50;0.50;;;26.80;1.00;;;;;;5033822;28;20195;-77
2022/08/09 08:22:15;;;;;;;0.50;0.50;;;26.90;1.00;;;;;;5033790;28;20191;-78
2022/08/09 08:24:41;;;;;;;0.40;0.40;;;26.90;1.00;;;;;;5033305;28;20179;-78
2022/08/09 08:27:07;;;;;;;0.60;0.60;;;27.40;1.00;;;;;;5035437;28;20697;-78
2022/08/09 08:29:33;;;;;;;0.50;0.50;;;27.70;1.00;;;;;;5036044;28;20222;-78
2022/08/09 08:31:58;;;;;;;0.50;0.50;;;27.30;1.00;;;;;;5034559;28;20171;-78
2022/08/09 08:34:24;;;;;;;0.50;0.50;;;27.20;1.00;;;;;;5033144;28;20202;-77
2022/08/09 08:36:49;;;;;;;0.50;0.50;;;27.20;1.00;;;;;;5032680;28;20259;-77
2022/08/09 08:39:15;;;;;;;0.63;0.63;;;26.80;1.00;;;;;;5032055;28;20546;-76
2022/08/09 08:41:40;;;;;;;0.57;0.57;;;27.40;1.00;;;;;;5032402;28;20176;-77
2022/08/09 08:44:08;;;;;;;0.60;0.60;;;27.40;1.00;;;;;;5034835;28;20203;-78
2022/08/09 08:46:39;;;;;;;0.70;0.70;;;27.80;1.00;;;;;;5033962;28;20590;-79
2022/08/09 08:49:06;;;;;;;0.60;0.60;;;28.10;1.00;;;;;;5034086;28;20212;-78
2022/08/09 08:51:32;;;;;;;0.50;0.50;;;28.10;1.00;;;;;;5033352;28;20672;-78
2022/08/09 08:53:58;;;;;;;0.55;0.55;;;28.50;1.00;;;;;;5034466;28;20203;-79
2022/08/09 08:56:23;;;;;;;0.50;0.50;;;28.40;1.00;;;;;;5034853;28;20180;-78
2022/08/09 08:58:50;;;;;;;0.50;0.50;;;28.50;1.00;;;;;;5035636;28;20187;-78
2022/08/09 09:01:16;;;;;;;0.50;0.50;;;28.60;1.00;;;;;;5036027;28;20168;-77
2022/08/09 09:03:42;;;;;;;0.60;0.60;;;29.00;1.00;;;;;;5034597;28;20208;-79
2022/08/09 09:06:09;;;;;;;0.50;0.50;;;29.60;1.00;;;;;;5035467;28;20707;-80
2022/08/09 09:08:36;;;;;;;0.50;0.50;;;28.80;1.00;;;;;;5035356;28;20269;-79
2022/08/09 09:11:03;;;;;;;0.50;0.50;;;28.30;1.00;;;;;;5034418;28;20178;-77
2022/08/09 09:13:39;;;;;;;0.57;0.57;;;28.00;1.00;;;;;;5035278;28;20211;-79
2022/08/09 09:16:07;;;;;;;0.60;0.60;;;28.20;1.00;;;;;;5034627;28;20179;-79
2022/08/09 09:18:32;;;;;;;0.40;0.40;;;27.90;1.00;;;;;;5034982;28;20176;-77
2022/08/09 09:20:58;;;;;;;0.40;0.40;;;27.80;1.00;;;;;;5034671;28;20505;-79
2022/08/09 09:23:41;;;;;;;0.40;0.40;;;27.70;1.00;;;;;;5035314;28;20198;-78
2022/08/09 09:26:06;;;;;;;0.50;0.50;;;27.60;1.00;;;;;;5034340;28;20679;-78
2022/08/09 09:28:33;;;;;;;0.50;0.50;;;27.50;1.00;;;;;;5034404;28;20208;-76
2022/08/09 09:31:00;;;;;;;0.30;0.30;;;27.90;1.00;;;;;;5036546;28;20239;-77
2022/08/09 09:33:36;;;;;;;0.50;0.50;;;28.20;1.00;;;;;;5037893;28;20200;-77
2022/08/09 09:36:10;;;;;;;0.40;0.40;;;28.20;1.00;;;;;;5037482;28;20617;-77
2022/08/09 09:38:41;;;;;;;0.40;0.40;;;28.30;1.00;;;;;;5037754;28;20189;-80
2022/08/09 09:41:07;;;;;;;0.40;0.40;;;28.40;1.00;;;;;;5033725;28;20211;-78
2022/08/09 09:43:32;;;;;;;0.47;0.47;;;28.60;1.00;;;;;;5034795;28;20564;-79
2022/08/09 09:46:01;;;;;;;0.57;0.57;;;28.80;1.00;;;;;;5034628;28;20203;-77
2022/08/09 09:48:28;;;;;;;0.50;0.50;;;28.30;1.00;;;;;;5034019;28;20223;-80
2022/08/09 09:50:54;;;;;;;0.50;0.50;;;27.90;1.00;;;;;;5033056;28;20588;-77
2022/08/09 09:53:22;;;;;;;0.40;0.40;;;28.40;1.00;;;;;;5037365;28;20191;-78
2022/08/09 09:55:55;;;;;;;0.40;0.40;;;28.50;1.00;;;;;;5041235;28;20259;-78
2022/08/09 09:58:21;;;;;;;0.47;0.47;;;29.00;1.00;;;;;;5041032;28;20569;-77
2022/08/09 10:00:55;;;;;;;0.50;0.50;;;29.80;1.00;;;;;;5040735;28;20186;-78
2022/08/09 10:03:45;;;;;;;0.40;0.40;;;29.60;1.00;;;;;;5040601;28;20573;-78
2022/08/09 10:06:11;;;;;;;0.60;0.60;;;29.50;1.00;;;;;;5041592;28;20210;-78
2022/08/09 10:08:36;;;;;;;0.40;0.40;;;29.30;1.00;;;;;;5040874;28;20230;-79
2022/08/09 10:11:22;;;;;;;0.60;0.60;;;29.10;1.00;;;;;;5040916;28;20278;-77
2022/08/09 10:13:49;;;;;;;0.50;0.50;;;28.70;1.00;;;;;;5040950;28;20203;-78
2022/08/09 10:16:24;;;;;;;0.50;0.50;;;29.00;1.00;;;;;;5052124;28;20187;-77
2022/08/09 10:18:52;;;;;;;0.40;0.40;;;29.20;1.00;;;;;;5041600;28;20222;-77
2022/08/09 10:21:18;;;;;;;0.40;0.40;;;29.80;1.00;;;;;;5039143;28;20179;-78
2022/08/09 10:23:44;;;;;;;0.40;0.40;;;30.40;1.00;;;;;;5041060;28;20199;-78
2022/08/09 10:26:10;;;;;;;0.50;0.50;;;30.60;1.00;;;;;;5039868;28;20182;-79
2022/08/09 10:28:37;;;;;;;0.50;0.50;;;29.80;1.00;;;;;;5039058;28;20707;-79
2022/08/09 10:31:03;;;;;;;0.50;0.50;;;30.00;1.00;;;;;;5040151;28;20182;-79
2022/08/09 10:33:29;;;;;;;0.47;0.47;;;29.80;1.00;;;;;;5040616;28;20191;-78
2022/08/09 10:35:55;;;;;;;0.40;0.40;;;30.20;1.00;;;;;;5040218;28;20207;-78
2022/08/09 10:38:21;;;;;;;0.50;0.50;;;30.30;1.00;;;;;;5040392;28;20270;-77
2022/08/09 10:40:47;;;;;;;0.50;0.50;;;30.40;1.00;;;;;;5038913;28;20222;-79
2022/08/09 10:43:13;;;;;;;0.60;0.60;;;30.50;1.00;;;;;;5040049;28;20264;-77
2022/08/09 10:45:42;;;;;;;0.50;0.50;;;30.20;1.00;;;;;;5039878;28;20234;-80
2022/08/09 10:48:33;;;;;;;0.53;0.53;;;29.90;1.00;;;;;;5039865;28;20209;-78
2022/08/09 10:51:22;;;;;;;0.50;0.50;;;29.20;1.00;;;;;;5039445;28;20515;-78
2022/08/09 10:53:50;;;;;;;0.50;0.50;;;29.90;1.00;;;;;;5039330;28;20195;-80
2022/08/09 10:56:25;;;;;;;0.52;0.52;;;29.90;1.00;;;;;;5038675;28;20175;-76
2022/08/09 10:58:52;;;;;;;0.40;0.40;;;29.60;1.00;;;;;;5038267;28;20198;-81
2022/08/09 11:01:30;;;;;;;0.50;0.50;;;29.60;1.00;;;;;;5039005;28;20668;-77
2022/08/09 11:04:28;;;;;;;0.40;0.40;;;29.10;1.00;;;;;;5037958;28;20195;-78
2022/08/09 11:07:13;;;;;;;0.50;0.50;;;29.30;1.00;;;;;;5035709;28;20184;-78
2022/08/09 11:09:42;;;;;;;0.40;0.40;;;29.30;1.00;;;;;;5034646;28;20579;-79
2022/08/09 11:12:28;;;;;;;0.60;0.60;;;29.30;1.00;;;;;;5036409;28;20321;-78
2022/08/09 11:15:22;;;;;;;0.40;0.40;;;28.90;1.00;;;;;;5038890;28;20187;-79
2022/08/09 11:17:51;;;;;;;0.40;0.40;;;29.30;1.00;;;;;;5039778;28;20710;-80
2022/08/09 11:20:19;;;;;;;0.30;0.30;;;29.60;1.00;;;;;;5039286;28;20709;-78
2022/08/09 11:22:44;;;;;;;0.50;0.50;;;30.00;1.00;;;;;;5038079;28;20227;-78
2022/08/09 11:25:14;;;;;;;0.40;0.40;;;30.20;1.00;;;;;;5038085;28;20703;-78
2022/08/09 11:27:53;;;;;;;0.50;0.50;;;30.00;1.00;;;;;;5035060;28;20186;-77
2022/08/09 11:30:21;;;;;;;0.40;0.40;;;29.50;1.00;;;;;;5032601;28;20188;-76
2022/08/09 11:33:00;;;;;;;0.60;0.60;;;29.30;1.00;;;;;;5033499;28;20192;-77
2022/08/09 11:35:36;;;;;;;0.60;0.60;;;29.30;1.00;;;;;;5032155;28;20517;-77
2022/08/09 11:38:26;;;;;;;0.50;0.50;;;29.60;1.00;;;;;;5031470;28;20242;-76
2022/08/09 11:40:53;;;;;;;0.40;0.40;;;29.30;1.00;;;;;;5029339;28;20187;-76
2022/08/09 11:43:25;;;;;;;0.50;0.50;;;29.20;1.00;;;;;;5033154;28;20191;-77
2022/08/09 11:45:59;;;;;;;0.40;0.40;;;29.20;1.00;;;;;;5033578;28;20561;-77
2022/08/09 11:48:28;;;;;;;0.40;0.40;;;29.80;1.00;;;;;;5031090;28;20258;-77
2022/08/09 11:50:57;;;;;;;0.50;0.50;;;29.70;1.00;;;;;;5032750;28;20633;-77
2022/08/09 11:53:27;;;;;;;0.50;0.50;;;29.70;1.00;;;;;;5032943;28;20612;-76
2022/08/09 11:55:55;;;;;;;0.50;0.50;;;29.60;1.00;;;;;;5030494;28;20172;-75
2022/08/09 11:58:22;;;;;;;0.33;0.33;;;29.60;1.00;;;;;;5033806;28;20178;-78
2022/08/09 12:00:53;;;;;;;0.60;0.60;;;30.00;1.00;;;;;;5033618;28;20244;-76
2022/08/09 12:03:21;;;;;;;0.60;0.60;;;30.20;1.00;;;;;;5034112;28;20257;-78
2022/08/09 12:05:48;;;;;;;0.50;0.50;;;30.70;1.00;;;;;;5038347;28;20637;-77
2022/08/09 12:08:15;;;;;;;0.60;0.60;;;30.70;1.00;;;;;;5036087;28;20669;-77
2022/08/09 12:10:49;;;;;;;0.57;0.57;;;30.90;1.00;;;;;;5036609;28;20206;-78
2022/08/09 12:13:35;;;;;;;0.60;0.60;;;30.80;1.00;;;;;;5034986;28;20212;-76
2022/08/09 12:16:09;;;;;;;0.60;0.60;;;29.90;1.00;;;;;;5035135;28;20196;-79
2022/08/09 12:18:37;;;;;;;0.47;0.47;;;29.90;1.00;;;;;;5034031;28;20536;-78
2022/08/09 12:21:06;;;;;;;0.40;0.40;;;29.20;1.00;;;;;;5034303;28;20637;-78
2022/08/09 12:23:33;;;;;;;0.60;0.60;;;29.10;1.00;;;;;;5034842;28;20204;-77
2022/08/09 12:26:01;;;;;;;0.40;0.40;;;29.50;1.00;;;;;;5036722;28;20229;-77
2022/08/09 12:28:27;;;;;;;0.60;0.60;;;29.90;1.00;;;;;;5036168;28;20622;-77
2022/08/09 12:30:53;;;;;;;0.50;0.50;;;29.90;1.00;;;;;;5036414;28;20259;-78
2022/08/09 12:33:19;;;;;;;0.43;0.43;;;29.90;1.00;;;;;;5033805;28;20195;-78
2022/08/09 12:35:46;;;;;;;0.43;0.43;;;29.50;1.00;;;;;;5034697;28;20171;-77
2022/08/09 12:38:24;;;;;;;0.57;0.57;;;29.80;1.00;;;;;;5033303;28;20176;-76
2022/08/09 12:40:50;;;;;;;0.50;0.50;;;29.40;1.00;;;;;;5034549;28;20186;-76
2022/08/09 12:43:19;;;;;;;0.50;0.50;;;29.30;1.00;;;;;;5034953;28;20257;-77
2022/08/09 12:45:46;;;;;;;0.60;0.60;;;29.40;1.00;;;;;;5033522;28;20642;-77
2022/08/09 12:48:12;;;;;;;0.40;0.40;;;29.30;1.00;;;;;;5033993;28;20299;-77
2022/08/09 12:50:38;;;;;;;0.50;0.50;;;29.40;1.00;;;;;;5032191;28;20696;-76
2022/08/09 12:53:04;;;;;;;0.60;0.60;;;29.50;1.00;;;;;;5033412;28;20234;-77
2022/08/09 12:55:31;;;;;;;0.60;0.60;;;29.50;1.00;;;;;;5035740;28;20187;-77
2022/08/09 12:57:58;;;;;;;0.50;0.50;;;29.80;1.00;;;;;;5033531;28;20230;-77
2022/08/09 13:00:28;;;;;;;0.50;0.50;;;29.70;1.00;;;;;;5035436;28;20195;-77